sensor_id;sensor_type;location;lat;lon;timestamp;temperature;humidity
7654;DHT22;3869;48.406;10.774;2022-09-09T00:02:02;13.70;99.90
7654;DHT22;3869;48.406;10.774;2022-09-09T00:04:35;13.70;99.90
7654;DHT22;3869;48.406;10.774;2022-09-09T00:07:06;13.70;99.90
7654;DHT22;3869;48.406;10.774;2022-09-09T00:09:40;13.70;99.90
7654;DHT22;3869;48.406;10.774;2022-09-09T00:12:14;13.70;99.90
7654;DHT22;3869;48.406;10.774;2022-09-09T00:14:48;13.60;99.90
7654;DHT22;3869;48.406;10.774;2022-09-09T00:17:30;13.60;99.90
7654;DHT22;3869;48.406;10.774;2022-09-09T00:20:05;13.60;99.90
7654;DHT22;3869;48.406;10.774;2022-09-09T00:22:42;13.60;99.90
7654;DHT22;3869;48.406;10.774;2022-09-09T00:25:17;13.60;99.90
7654;DHT22;3869;48.406;10.774;2022-09-09T00:27:49;13.50;99.90
7654;DHT22;3869;48.406;10.774;2022-09-09T00:30:19;13.50;99.90
7654;DHT22;3869;48.406;10.774;2022-09-09T00:32:50;13.50;99.90
7654;DHT22;3869;48.406;10.774;2022-09-09T00:35:25;13.50;99.90
7654;DHT22;3869;48.406;10.774;2022-09-09T00:37:55;13.50;99.90
7654;DHT22;3869;48.406;10.774;2022-09-09T00:40:28;13.50;99.90
7654;DHT22;3869;48.406;10.774;2022-09-09T00:43:24;13.40;99.90
7654;DHT22;3869;48.406;10.774;2022-09-09T00:46:10;13.50;99.90
7654;DHT22;3869;48.406;10.774;2022-09-09T00:48:50;13.50;99.90
7654;DHT22;3869;48.406;10.774;2022-09-09T00:51:26;13.50;99.90
7654;DHT22;3869;48.406;10.774;2022-09-09T00:54:05;13.50;99.90
7654;DHT22;3869;48.406;10.774;2022-09-09T00:56:40;13.50;99.90
7654;DHT22;3869;48.406;10.774;2022-09-09T00:59:20;13.50;99.90
7654;DHT22;3869;48.406;10.774;2022-09-09T01:01:54;13.50;99.90
7654;DHT22;3869;48.406;10.774;2022-09-09T01:04:27;13.40;99.90
7654;DHT22;3869;48.406;10.774;2022-09-09T01:07:04;13.40;99.90
7654;DHT22;3869;48.406;10.774;2022-09-09T01:09:45;13.40;99.90
7654;DHT22;3869;48.406;10.774;2022-09-09T01:12:26;13.50;99.90
7654;DHT22;3869;48.406;10.774;2022-09-09T01:15:03;13.50;99.90
7654;DHT22;3869;48.406;10.774;2022-09-09T01:17:49;13.50;99.90
7654;DHT22;3869;48.406;10.774;2022-09-09T01:20:21;13.40;99.90
7654;DHT22;3869;48.406;10.774;2022-09-09T01:26:22;13.40;99.90
7654;DHT22;3869;48.406;10.774;2022-09-09T01:28:53;13.30;99.90
7654;DHT22;3869;48.406;10.774;2022-09-09T01:31:24;13.40;99.90
7654;DHT22;3869;48.406;10.774;2022-09-09T01:33:54;13.40;99.90
7654;DHT22;3869;48.406;10.774;2022-09-09T01:36:28;13.50;99.90
7654;DHT22;3869;48.406;10.774;2022-09-09T01:38:57;13.50;99.90
7654;DHT22;3869;48.406;10.774;2022-09-09T01:41:27;13.50;99.90
7654;DHT22;3869;48.406;10.774;2022-09-09T01:43:55;13.50;99.90
7654;DHT22;3869;48.406;10.774;2022-09-09T01:46:24;13.40;99.90
7654;DHT22;3869;48.406;10.774;2022-09-09T01:48:53;13.40;99.90
7654;DHT22;3869;48.406;10.774;2022-09-09T01:51:21;13.30;99.90
7654;DHT22;3869;48.406;10.774;2022-09-09T01:53:50;13.30;99.90
7654;DHT22;3869;48.406;10.774;2022-09-09T01:56:31;13.30;99.90
7654;DHT22;3869;48.406;10.774;2022-09-09T01:59:11;13.30;99.90
7654;DHT22;3869;48.406;10.774;2022-09-09T02:01:54;13.30;99.90
7654;DHT22;3869;48.406;10.774;2022-09-09T02:04:35;13.30;99.90
7654;DHT22;3869;48.406;10.774;2022-09-09T02:09:59;13.40;99.90
7654;DHT22;3869;48.406;10.774;2022-09-09T02:12:30;13.40;99.90
7654;DHT22;3869;48.406;10.774;2022-09-09T02:15:03;13.40;99.90
7654;DHT22;3869;48.406;10.774;2022-09-09T02:17:35;13.40;99.90
7654;DHT22;3869;48.406;10.774;2022-09-09T02:20:06;13.30;99.90
7654;DHT22;3869;48.406;10.774;2022-09-09T02:22:37;13.30;99.90
7654;DHT22;3869;48.406;10.774;2022-09-09T02:25:09;13.30;99.90
7654;DHT22;3869;48.406;10.774;2022-09-09T02:27:40;13.30;99.90
7654;DHT22;3869;48.406;10.774;2022-09-09T02:30:11;13.30;99.90
7654;DHT22;3869;48.406;10.774;2022-09-09T02:32:42;13.20;99.90
7654;DHT22;3869;48.406;10.774;2022-09-09T02:35:12;13.20;99.90
7654;DHT22;3869;48.406;10.774;2022-09-09T02:37:42;13.20;99.90
7654;DHT22;3869;48.406;10.774;2022-09-09T02:40:14;13.20;99.90
7654;DHT22;3869;48.406;10.774;2022-09-09T02:42:46;13.20;99.90
7654;DHT22;3869;48.406;10.774;2022-09-09T02:45:16;13.20;99.90
7654;DHT22;3869;48.406;10.774;2022-09-09T02:47:50;13.20;99.90
7654;DHT22;3869;48.406;10.774;2022-09-09T02:50:25;13.20;99.90
7654;DHT22;3869;48.406;10.774;2022-09-09T02:53:05;13.20;99.90
7654;DHT22;3869;48.406;10.774;2022-09-09T02:55:41;13.20;99.90
7654;DHT22;3869;48.406;10.774;2022-09-09T02:58:16;13.20;99.90
7654;DHT22;3869;48.406;10.774;2022-09-09T03:00:47;13.20;99.90
7654;DHT22;3869;48.406;10.774;2022-09-09T03:03:16;13.10;99.90
7654;DHT22;3869;48.406;10.774;2022-09-09T03:05:45;13.10;99.90
7654;DHT22;3869;48.406;10.774;2022-09-09T03:08:13;13.10;99.90
7654;DHT22;3869;48.406;10.774;2022-09-09T03:10:41;13.10;99.90
7654;DHT22;3869;48.406;10.774;2022-09-09T03:13:10;13.10;99.90
7654;DHT22;3869;48.406;10.774;2022-09-09T03:15:43;13.10;99.90
7654;DHT22;3869;48.406;10.774;2022-09-09T03:18:11;13.10;99.90
7654;DHT22;3869;48.406;10.774;2022-09-09T03:20:39;13.10;99.90
7654;DHT22;3869;48.406;10.774;2022-09-09T03:23:08;13.10;99.90
7654;DHT22;3869;48.406;10.774;2022-09-09T03:25:46;13.10;99.90
7654;DHT22;3869;48.406;10.774;2022-09-09T03:28:15;13.00;99.90
7654;DHT22;3869;48.406;10.774;2022-09-09T03:30:44;13.10;99.90
7654;DHT22;3869;48.406;10.774;2022-09-09T03:33:12;13.00;99.90
7654;DHT22;3869;48.406;10.774;2022-09-09T03:35:45;13.00;99.90
7654;DHT22;3869;48.406;10.774;2022-09-09T03:38:15;13.00;99.90
7654;DHT22;3869;48.406;10.774;2022-09-09T03:40:49;13.00;99.90
7654;DHT22;3869;48.406;10.774;2022-09-09T03:43:17;13.00;99.90
7654;DHT22;3869;48.406;10.774;2022-09-09T03:45:48;13.00;99.90
7654;DHT22;3869;48.406;10.774;2022-09-09T03:48:17;12.90;99.90
7654;DHT22;3869;48.406;10.774;2022-09-09T03:50:45;12.90;99.90
7654;DHT22;3869;48.406;10.774;2022-09-09T03:53:15;12.90;99.90
7654;DHT22;3869;48.406;10.774;2022-09-09T03:55:44;12.90;99.90
7654;DHT22;3869;48.406;10.774;2022-09-09T03:58:12;12.80;99.90
7654;DHT22;3869;48.406;10.774;2022-09-09T04:00:40;12.70;99.90
7654;DHT22;3869;48.406;10.774;2022-09-09T04:03:10;12.70;99.90
7654;DHT22;3869;48.406;10.774;2022-09-09T04:05:39;12.70;99.90
7654;DHT22;3869;48.406;10.774;2022-09-09T04:08:09;12.70;99.90
7654;DHT22;3869;48.406;10.774;2022-09-09T04:10:38;12.70;99.90
7654;DHT22;3869;48.406;10.774;2022-09-09T04:13:05;12.70;99.90
7654;DHT22;3869;48.406;10.774;2022-09-09T04:15:33;12.80;99.90
7654;DHT22;3869;48.406;10.774;2022-09-09T04:18:02;12.80;99.90
7654;DHT22;3869;48.406;10.774;2022-09-09T04:20:31;12.80;99.90
7654;DHT22;3869;48.406;10.774;2022-09-09T04:22:59;12.80;99.90
7654;DHT22;3869;48.406;10.774;2022-09-09T04:25:27;12.80;99.90
7654;DHT22;3869;48.406;10.774;2022-09-09T04:27:56;12.70;99.90
7654;DHT22;3869;48.406;10.774;2022-09-09T04:30:24;12.70;99.90
7654;DHT22;3869;48.406;10.774;2022-09-09T04:32:54;12.80;99.90
7654;DHT22;3869;48.406;10.774;2022-09-09T04:35:21;12.70;99.90
7654;DHT22;3869;48.406;10.774;2022-09-09T04:37:51;12.80;99.90
7654;DHT22;3869;48.406;10.774;2022-09-09T04:40:19;12.90;99.90
7654;DHT22;3869;48.406;10.774;2022-09-09T04:42:48;12.80;99.90
7654;DHT22;3869;48.406;10.774;2022-09-09T04:45:17;12.80;99.90
7654;DHT22;3869;48.406;10.774;2022-09-09T04:47:45;12.90;99.90
7654;DHT22;3869;48.406;10.774;2022-09-09T04:50:13;12.90;99.90
7654;DHT22;3869;48.406;10.774;2022-09-09T04:52:41;12.90;99.90
7654;DHT22;3869;48.406;10.774;2022-09-09T04:55:10;12.90;99.90
7654;DHT22;3869;48.406;10.774;2022-09-09T04:57:39;13.00;99.90
7654;DHT22;3869;48.406;10.774;2022-09-09T05:00:09;13.00;99.90
7654;DHT22;3869;48.406;10.774;2022-09-09T05:02:37;13.00;99.90
7654;DHT22;3869;48.406;10.774;2022-09-09T05:05:06;13.10;99.90
7654;DHT22;3869;48.406;10.774;2022-09-09T05:07:34;13.10;99.90
7654;DHT22;3869;48.406;10.774;2022-09-09T05:10:04;13.20;99.90
7654;DHT22;3869;48.406;10.774;2022-09-09T05:12:33;13.30;99.90
7654;DHT22;3869;48.406;10.774;2022-09-09T05:15:01;13.30;99.90
7654;DHT22;3869;48.406;10.774;2022-09-09T05:17:29;13.30;99.90
7654;DHT22;3869;48.406;10.774;2022-09-09T05:19:57;13.40;99.90
7654;DHT22;3869;48.406;10.774;2022-09-09T05:22:25;13.40;99.90
7654;DHT22;3869;48.406;10.774;2022-09-09T05:24:53;13.40;99.90
7654;DHT22;3869;48.406;10.774;2022-09-09T05:27:21;13.40;99.90
7654;DHT22;3869;48.406;10.774;2022-09-09T05:29:50;13.40;99.90
7654;DHT22;3869;48.406;10.774;2022-09-09T05:32:18;13.50;99.90
7654;DHT22;3869;48.406;10.774;2022-09-09T05:34:46;13.50;99.90
7654;DHT22;3869;48.406;10.774;2022-09-09T05:37:14;13.50;99.90
7654;DHT22;3869;48.406;10.774;2022-09-09T05:39:43;13.60;99.90
7654;DHT22;3869;48.406;10.774;2022-09-09T05:42:11;13.70;99.90
7654;DHT22;3869;48.406;10.774;2022-09-09T05:44:39;13.70;99.90
7654;DHT22;3869;48.406;10.774;2022-09-09T05:47:12;13.80;99.90
7654;DHT22;3869;48.406;10.774;2022-09-09T05:49:41;13.90;99.90
7654;DHT22;3869;48.406;10.774;2022-09-09T05:52:09;13.90;99.90
7654;DHT22;3869;48.406;10.774;2022-09-09T05:54:37;14.00;99.90
7654;DHT22;3869;48.406;10.774;2022-09-09T05:57:05;14.00;99.90
7654;DHT22;3869;48.406;10.774;2022-09-09T05:59:33;14.10;99.90
7654;DHT22;3869;48.406;10.774;2022-09-09T06:02:01;14.10;99.90
7654;DHT22;3869;48.406;10.774;2022-09-09T06:04:31;14.20;99.90
7654;DHT22;3869;48.406;10.774;2022-09-09T06:06:58;14.30;99.90
7654;DHT22;3869;48.406;10.774;2022-09-09T06:09:26;14.30;99.90
7654;DHT22;3869;48.406;10.774;2022-09-09T06:11:54;14.30;99.90
7654;DHT22;3869;48.406;10.774;2022-09-09T06:14:24;14.40;99.90
7654;DHT22;3869;48.406;10.774;2022-09-09T06:16:53;14.40;99.90
7654;DHT22;3869;48.406;10.774;2022-09-09T06:19:23;14.50;99.90
7654;DHT22;3869;48.406;10.774;2022-09-09T06:21:54;14.50;99.90
7654;DHT22;3869;48.406;10.774;2022-09-09T06:24:22;14.50;99.90
7654;DHT22;3869;48.406;10.774;2022-09-09T06:26:50;14.50;99.90
7654;DHT22;3869;48.406;10.774;2022-09-09T06:29:18;14.60;99.90
7654;DHT22;3869;48.406;10.774;2022-09-09T06:31:46;14.70;99.90
7654;DHT22;3869;48.406;10.774;2022-09-09T06:34:14;14.70;99.90
7654;DHT22;3869;48.406;10.774;2022-09-09T06:36:42;14.80;99.90
7654;DHT22;3869;48.406;10.774;2022-09-09T06:39:12;14.80;99.90
7654;DHT22;3869;48.406;10.774;2022-09-09T06:41:42;14.90;99.90
7654;DHT22;3869;48.406;10.774;2022-09-09T06:44:10;14.90;99.90
7654;DHT22;3869;48.406;10.774;2022-09-09T06:46:39;14.90;99.90
7654;DHT22;3869;48.406;10.774;2022-09-09T06:49:08;14.90;99.90
7654;DHT22;3869;48.406;10.774;2022-09-09T06:51:37;15.00;99.90
7654;DHT22;3869;48.406;10.774;2022-09-09T06:54:09;15.00;99.90
7654;DHT22;3869;48.406;10.774;2022-09-09T06:56:40;15.10;99.90
7654;DHT22;3869;48.406;10.774;2022-09-09T06:59:10;15.10;99.90
7654;DHT22;3869;48.406;10.774;2022-09-09T07:01:40;15.10;99.90
7654;DHT22;3869;48.406;10.774;2022-09-09T07:04:09;15.10;99.90
7654;DHT22;3869;48.406;10.774;2022-09-09T07:06:39;15.20;99.90
7654;DHT22;3869;48.406;10.774;2022-09-09T07:09:09;15.20;99.90
7654;DHT22;3869;48.406;10.774;2022-09-09T07:11:40;15.30;99.90
7654;DHT22;3869;48.406;10.774;2022-09-09T07:14:09;15.30;99.90
7654;DHT22;3869;48.406;10.774;2022-09-09T07:16:39;15.40;99.90
7654;DHT22;3869;48.406;10.774;2022-09-09T07:19:08;15.40;99.90
7654;DHT22;3869;48.406;10.774;2022-09-09T07:21:37;15.40;99.90
7654;DHT22;3869;48.406;10.774;2022-09-09T07:24:06;15.50;99.90
7654;DHT22;3869;48.406;10.774;2022-09-09T07:26:38;15.50;99.90
7654;DHT22;3869;48.406;10.774;2022-09-09T07:29:07;15.60;99.90
7654;DHT22;3869;48.406;10.774;2022-09-09T07:31:36;15.60;99.90
7654;DHT22;3869;48.406;10.774;2022-09-09T07:34:05;15.60;99.90
7654;DHT22;3869;48.406;10.774;2022-09-09T07:36:35;15.60;99.90
7654;DHT22;3869;48.406;10.774;2022-09-09T07:39:06;15.60;99.90
7654;DHT22;3869;48.406;10.774;2022-09-09T07:41:37;15.60;99.90
7654;DHT22;3869;48.406;10.774;2022-09-09T07:44:09;15.60;99.90
7654;DHT22;3869;48.406;10.774;2022-09-09T07:46:38;15.50;99.90
7654;DHT22;3869;48.406;10.774;2022-09-09T07:49:08;15.40;99.90
7654;DHT22;3869;48.406;10.774;2022-09-09T07:51:38;15.30;99.90
7654;DHT22;3869;48.406;10.774;2022-09-09T07:54:08;15.20;99.90
7654;DHT22;3869;48.406;10.774;2022-09-09T07:56:37;15.20;99.90
7654;DHT22;3869;48.406;10.774;2022-09-09T07:59:08;15.10;99.90
7654;DHT22;3869;48.406;10.774;2022-09-09T08:01:38;15.10;99.90
7654;DHT22;3869;48.406;10.774;2022-09-09T08:04:08;15.10;99.90
7654;DHT22;3869;48.406;10.774;2022-09-09T08:06:39;15.10;99.90
7654;DHT22;3869;48.406;10.774;2022-09-09T08:09:08;15.20;99.90
7654;DHT22;3869;48.406;10.774;2022-09-09T08:11:36;15.20;99.90
7654;DHT22;3869;48.406;10.774;2022-09-09T08:14:07;15.10;99.90
7654;DHT22;3869;48.406;10.774;2022-09-09T08:16:37;15.20;99.90
7654;DHT22;3869;48.406;10.774;2022-09-09T08:19:06;15.20;99.90
7654;DHT22;3869;48.406;10.774;2022-09-09T08:21:36;15.30;99.90
7654;DHT22;3869;48.406;10.774;2022-09-09T08:24:05;15.30;99.90
7654;DHT22;3869;48.406;10.774;2022-09-09T08:26:35;15.30;99.90
7654;DHT22;3869;48.406;10.774;2022-09-09T08:29:05;15.40;99.90
7654;DHT22;3869;48.406;10.774;2022-09-09T08:31:37;15.50;99.90
7654;DHT22;3869;48.406;10.774;2022-09-09T08:34:06;15.60;99.90
7654;DHT22;3869;48.406;10.774;2022-09-09T08:36:37;15.60;99.90
7654;DHT22;3869;48.406;10.774;2022-09-09T08:39:06;15.70;99.90
7654;DHT22;3869;48.406;10.774;2022-09-09T08:41:49;15.80;99.90
7654;DHT22;3869;48.406;10.774;2022-09-09T08:44:24;15.80;99.90
7654;DHT22;3869;48.406;10.774;2022-09-09T08:47:03;15.90;99.90
7654;DHT22;3869;48.406;10.774;2022-09-09T08:49:54;16.00;99.90
7654;DHT22;3869;48.406;10.774;2022-09-09T08:52:28;16.00;99.90
7654;DHT22;3869;48.406;10.774;2022-09-09T08:54:59;16.10;99.90
7654;DHT22;3869;48.406;10.774;2022-09-09T08:57:31;16.00;99.90
7654;DHT22;3869;48.406;10.774;2022-09-09T09:00:00;16.10;99.90
7654;DHT22;3869;48.406;10.774;2022-09-09T09:02:35;16.10;99.90
7654;DHT22;3869;48.406;10.774;2022-09-09T09:05:14;16.20;99.90
7654;DHT22;3869;48.406;10.774;2022-09-09T09:07:55;16.30;99.90
7654;DHT22;3869;48.406;10.774;2022-09-09T09:10:37;16.30;99.90
7654;DHT22;3869;48.406;10.774;2022-09-09T09:13:14;16.40;99.90
7654;DHT22;3869;48.406;10.774;2022-09-09T09:15:44;16.60;99.90
7654;DHT22;3869;48.406;10.774;2022-09-09T09:18:16;16.80;99.90
7654;DHT22;3869;48.406;10.774;2022-09-09T09:20:50;16.90;99.90
7654;DHT22;3869;48.406;10.774;2022-09-09T09:23:23;17.00;99.90
7654;DHT22;3869;48.406;10.774;2022-09-09T09:25:56;17.00;99.90
7654;DHT22;3869;48.406;10.774;2022-09-09T09:28:29;17.10;99.90
7654;DHT22;3869;48.406;10.774;2022-09-09T09:31:03;17.10;99.90
7654;DHT22;3869;48.406;10.774;2022-09-09T09:33:36;17.10;99.90
7654;DHT22;3869;48.406;10.774;2022-09-09T09:36:08;17.10;99.90
7654;DHT22;3869;48.406;10.774;2022-09-09T09:38:36;17.30;99.90
7654;DHT22;3869;48.406;10.774;2022-09-09T09:41:30;17.40;99.90
7654;DHT22;3869;48.406;10.774;2022-09-09T09:43:58;17.50;99.90
7654;DHT22;3869;48.406;10.774;2022-09-09T09:46:28;17.60;99.90
7654;DHT22;3869;48.406;10.774;2022-09-09T09:48:59;17.70;99.90
7654;DHT22;3869;48.406;10.774;2022-09-09T09:51:29;17.80;99.90
7654;DHT22;3869;48.406;10.774;2022-09-09T09:54:13;17.90;99.90
7654;DHT22;3869;48.406;10.774;2022-09-09T09:56:43;18.00;99.90
7654;DHT22;3869;48.406;10.774;2022-09-09T09:59:23;18.10;99.90
7654;DHT22;3869;48.406;10.774;2022-09-09T10:02:21;18.20;99.90
7654;DHT22;3869;48.406;10.774;2022-09-09T10:05:03;18.20;99.90
7654;DHT22;3869;48.406;10.774;2022-09-09T10:07:31;18.30;99.90
7654;DHT22;3869;48.406;10.774;2022-09-09T10:10:00;18.40;99.90
7654;DHT22;3869;48.406;10.774;2022-09-09T10:12:36;18.50;99.90
7654;DHT22;3869;48.406;10.774;2022-09-09T10:15:22;18.50;99.90
7654;DHT22;3869;48.406;10.774;2022-09-09T10:18:00;18.60;99.90
7654;DHT22;3869;48.406;10.774;2022-09-09T10:20:41;18.70;99.90
7654;DHT22;3869;48.406;10.774;2022-09-09T10:23:22;18.80;99.90
7654;DHT22;3869;48.406;10.774;2022-09-09T10:26:19;18.80;99.90
7654;DHT22;3869;48.406;10.774;2022-09-09T10:29:11;18.90;99.90
7654;DHT22;3869;48.406;10.774;2022-09-09T10:31:47;18.90;99.90
7654;DHT22;3869;48.406;10.774;2022-09-09T10:34:29;18.90;99.90
7654;DHT22;3869;48.406;10.774;2022-09-09T10:37:08;18.90;99.90
7654;DHT22;3869;48.406;10.774;2022-09-09T10:39:44;19.00;99.90
7654;DHT22;3869;48.406;10.774;2022-09-09T10:42:13;19.00;99.90
7654;DHT22;3869;48.406;10.774;2022-09-09T10:44:51;19.00;99.90
7654;DHT22;3869;48.406;10.774;2022-09-09T10:47:43;19.00;99.90
7654;DHT22;3869;48.406;10.774;2022-09-09T10:50:42;18.90;99.90
7654;DHT22;3869;48.406;10.774;2022-09-09T10:53:37;18.90;99.90
7654;DHT22;3869;48.406;10.774;2022-09-09T10:56:09;18.90;99.90
7654;DHT22;3869;48.406;10.774;2022-09-09T10:58:40;18.90;99.90
7654;DHT22;3869;48.406;10.774;2022-09-09T11:01:14;18.90;99.90
7654;DHT22;3869;48.406;10.774;2022-09-09T11:03:44;19.00;99.90
7654;DHT22;3869;48.406;10.774;2022-09-09T11:06:17;19.10;99.90
7654;DHT22;3869;48.406;10.774;2022-09-09T11:08:48;19.10;99.90
7654;DHT22;3869;48.406;10.774;2022-09-09T11:11:27;19.20;99.90
7654;DHT22;3869;48.406;10.774;2022-09-09T11:14:01;19.20;99.90
7654;DHT22;3869;48.406;10.774;2022-09-09T11:16:35;19.30;99.90
7654;DHT22;3869;48.406;10.774;2022-09-09T11:19:12;19.40;99.90
7654;DHT22;3869;48.406;10.774;2022-09-09T11:21:46;19.40;99.90
7654;DHT22;3869;48.406;10.774;2022-09-09T11:24:21;19.40;99.90
7654;DHT22;3869;48.406;10.774;2022-09-09T11:26:51;19.50;99.90
7654;DHT22;3869;48.406;10.774;2022-09-09T11:29:45;19.60;99.90
7654;DHT22;3869;48.406;10.774;2022-09-09T11:32:28;19.60;99.90
7654;DHT22;3869;48.406;10.774;2022-09-09T11:35:09;19.60;99.90
7654;DHT22;3869;48.406;10.774;2022-09-09T11:37:55;19.70;99.90
7654;DHT22;3869;48.406;10.774;2022-09-09T11:40:28;19.70;99.90
7654;DHT22;3869;48.406;10.774;2022-09-09T11:43:03;19.70;99.90
7654;DHT22;3869;48.406;10.774;2022-09-09T11:45:33;19.70;99.90
7654;DHT22;3869;48.406;10.774;2022-09-09T11:48:03;19.70;99.90
7654;DHT22;3869;48.406;10.774;2022-09-09T11:50:35;19.70;99.90
7654;DHT22;3869;48.406;10.774;2022-09-09T11:53:17;19.80;99.90
7654;DHT22;3869;48.406;10.774;2022-09-09T11:56:00;19.80;99.90
7654;DHT22;3869;48.406;10.774;2022-09-09T11:58:38;19.80;99.90
7654;DHT22;3869;48.406;10.774;2022-09-09T12:01:15;19.80;99.90
7654;DHT22;3869;48.406;10.774;2022-09-09T12:03:44;19.80;99.90
7654;DHT22;3869;48.406;10.774;2022-09-09T12:06:18;19.80;99.90
7654;DHT22;3869;48.406;10.774;2022-09-09T12:08:51;19.90;99.90
7654;DHT22;3869;48.406;10.774;2022-09-09T12:11:27;19.90;99.90
7654;DHT22;3869;48.406;10.774;2022-09-09T12:13:56;20.00;99.90
7654;DHT22;3869;48.406;10.774;2022-09-09T12:16:32;20.10;99.90
7654;DHT22;3869;48.406;10.774;2022-09-09T12:19:06;20.30;99.90
7654;DHT22;3869;48.406;10.774;2022-09-09T12:21:40;20.30;99.90
7654;DHT22;3869;48.406;10.774;2022-09-09T12:24:16;20.40;99.90
7654;DHT22;3869;48.406;10.774;2022-09-09T12:26:54;20.40;99.90
7654;DHT22;3869;48.406;10.774;2022-09-09T12:29:32;20.40;99.90
7654;DHT22;3869;48.406;10.774;2022-09-09T12:32:07;20.40;99.90
7654;DHT22;3869;48.406;10.774;2022-09-09T12:34:41;20.40;99.90
7654;DHT22;3869;48.406;10.774;2022-09-09T12:37:17;20.40;99.90
7654;DHT22;3869;48.406;10.774;2022-09-09T12:39:51;20.40;99.90
7654;DHT22;3869;48.406;10.774;2022-09-09T12:42:24;20.40;99.90
7654;DHT22;3869;48.406;10.774;2022-09-09T12:44:54;20.30;99.90
7654;DHT22;3869;48.406;10.774;2022-09-09T12:47:25;20.30;99.90
7654;DHT22;3869;48.406;10.774;2022-09-09T12:49:57;20.20;99.90
7654;DHT22;3869;48.406;10.774;2022-09-09T12:52:29;20.30;99.90
7654;DHT22;3869;48.406;10.774;2022-09-09T12:55:00;20.40;99.90
7654;DHT22;3869;48.406;10.774;2022-09-09T12:57:34;20.50;99.90
7654;DHT22;3869;48.406;10.774;2022-09-09T13:00:11;20.60;99.90
7654;DHT22;3869;48.406;10.774;2022-09-09T13:02:49;20.70;99.90
7654;DHT22;3869;48.406;10.774;2022-09-09T13:05:21;20.70;99.90
7654;DHT22;3869;48.406;10.774;2022-09-09T13:07:50;20.80;99.90
7654;DHT22;3869;48.406;10.774;2022-09-09T13:10:24;20.80;99.90
7654;DHT22;3869;48.406;10.774;2022-09-09T13:13:16;21.00;99.90
7654;DHT22;3869;48.406;10.774;2022-09-09T13:15:50;21.00;99.90
7654;DHT22;3869;48.406;10.774;2022-09-09T13:18:22;20.90;99.90
7654;DHT22;3869;48.406;10.774;2022-09-09T13:20:51;21.00;99.90
7654;DHT22;3869;48.406;10.774;2022-09-09T13:23:20;21.10;99.90
7654;DHT22;3869;48.406;10.774;2022-09-09T13:25:57;21.00;99.90
7654;DHT22;3869;48.406;10.774;2022-09-09T13:28:28;20.90;99.90
7654;DHT22;3869;48.406;10.774;2022-09-09T13:31:00;20.80;99.90
7654;DHT22;3869;48.406;10.774;2022-09-09T13:33:32;20.80;99.90
7654;DHT22;3869;48.406;10.774;2022-09-09T13:36:02;20.60;99.90
7654;DHT22;3869;48.406;10.774;2022-09-09T13:38:33;20.50;99.90
7654;DHT22;3869;48.406;10.774;2022-09-09T13:41:04;20.40;99.90
7654;DHT22;3869;48.406;10.774;2022-09-09T13:43:38;20.40;99.90
7654;DHT22;3869;48.406;10.774;2022-09-09T13:46:25;20.30;99.90
7654;DHT22;3869;48.406;10.774;2022-09-09T13:48:55;20.20;99.90
7654;DHT22;3869;48.406;10.774;2022-09-09T13:51:30;20.00;99.90
7654;DHT22;3869;48.406;10.774;2022-09-09T13:54:00;20.00;99.90
7654;DHT22;3869;48.406;10.774;2022-09-09T13:56:28;19.80;99.90
7654;DHT22;3869;48.406;10.774;2022-09-09T13:58:57;19.60;99.90
7654;DHT22;3869;48.406;10.774;2022-09-09T14:01:25;19.50;99.90
7654;DHT22;3869;48.406;10.774;2022-09-09T14:03:55;19.20;99.90
7654;DHT22;3869;48.406;10.774;2022-09-09T14:06:23;18.90;99.90
7654;DHT22;3869;48.406;10.774;2022-09-09T14:08:52;18.50;99.90
7654;DHT22;3869;48.406;10.774;2022-09-09T14:11:21;18.20;99.90
7654;DHT22;3869;48.406;10.774;2022-09-09T14:13:49;17.90;99.90
7654;DHT22;3869;48.406;10.774;2022-09-09T14:16:19;17.70;99.90
7654;DHT22;3869;48.406;10.774;2022-09-09T14:18:48;17.60;99.90
7654;DHT22;3869;48.406;10.774;2022-09-09T14:21:16;17.70;99.90
7654;DHT22;3869;48.406;10.774;2022-09-09T14:23:44;17.70;99.90
7654;DHT22;3869;48.406;10.774;2022-09-09T14:26:12;17.70;99.90
7654;DHT22;3869;48.406;10.774;2022-09-09T14:28:41;17.70;99.90
7654;DHT22;3869;48.406;10.774;2022-09-09T14:31:26;17.60;99.90
7654;DHT22;3869;48.406;10.774;2022-09-09T14:33:54;17.70;99.90
7654;DHT22;3869;48.406;10.774;2022-09-09T14:36:22;17.80;99.90
7654;DHT22;3869;48.406;10.774;2022-09-09T14:38:50;17.90;99.90
7654;DHT22;3869;48.406;10.774;2022-09-09T14:41:19;18.00;99.90
7654;DHT22;3869;48.406;10.774;2022-09-09T14:43:49;18.00;99.90
7654;DHT22;3869;48.406;10.774;2022-09-09T14:46:21;18.10;99.90
7654;DHT22;3869;48.406;10.774;2022-09-09T14:48:51;18.10;99.90
7654;DHT22;3869;48.406;10.774;2022-09-09T14:51:25;18.10;99.90
7654;DHT22;3869;48.406;10.774;2022-09-09T14:53:56;18.20;99.90
7654;DHT22;3869;48.406;10.774;2022-09-09T14:56:26;18.20;99.90
7654;DHT22;3869;48.406;10.774;2022-09-09T14:58:55;18.20;99.90
7654;DHT22;3869;48.406;10.774;2022-09-09T15:01:24;18.20;99.90
7654;DHT22;3869;48.406;10.774;2022-09-09T15:03:56;18.20;99.90
7654;DHT22;3869;48.406;10.774;2022-09-09T15:06:26;18.20;99.90
7654;DHT22;3869;48.406;10.774;2022-09-09T15:08:56;18.20;99.90
7654;DHT22;3869;48.406;10.774;2022-09-09T15:11:26;18.20;99.90
7654;DHT22;3869;48.406;10.774;2022-09-09T15:13:57;18.20;99.90
7654;DHT22;3869;48.406;10.774;2022-09-09T15:16:27;18.20;99.90
7654;DHT22;3869;48.406;10.774;2022-09-09T15:18:58;18.30;99.90
7654;DHT22;3869;48.406;10.774;2022-09-09T15:21:28;18.30;99.90
7654;DHT22;3869;48.406;10.774;2022-09-09T15:23:57;18.20;99.90
7654;DHT22;3869;48.406;10.774;2022-09-09T15:26:25;18.30;99.90
7654;DHT22;3869;48.406;10.774;2022-09-09T15:28:54;18.30;99.90
7654;DHT22;3869;48.406;10.774;2022-09-09T15:31:24;18.20;99.90
7654;DHT22;3869;48.406;10.774;2022-09-09T15:33:53;18.20;99.90
7654;DHT22;3869;48.406;10.774;2022-09-09T15:36:29;18.20;99.90
7654;DHT22;3869;48.406;10.774;2022-09-09T15:38:58;18.20;99.90
7654;DHT22;3869;48.406;10.774;2022-09-09T15:41:27;18.30;99.90
7654;DHT22;3869;48.406;10.774;2022-09-09T15:43:57;18.30;99.90
7654;DHT22;3869;48.406;10.774;2022-09-09T15:46:28;18.30;99.90
7654;DHT22;3869;48.406;10.774;2022-09-09T15:48:58;18.30;99.90
7654;DHT22;3869;48.406;10.774;2022-09-09T15:51:28;18.30;99.90
7654;DHT22;3869;48.406;10.774;2022-09-09T15:54:10;18.40;99.90
7654;DHT22;3869;48.406;10.774;2022-09-09T15:56:39;18.40;99.90
7654;DHT22;3869;48.406;10.774;2022-09-09T15:59:07;18.50;99.90
7654;DHT22;3869;48.406;10.774;2022-09-09T16:01:35;18.50;99.90
7654;DHT22;3869;48.406;10.774;2022-09-09T16:04:03;18.50;99.90
7654;DHT22;3869;48.406;10.774;2022-09-09T16:06:32;18.50;99.90
7654;DHT22;3869;48.406;10.774;2022-09-09T16:09:03;18.50;99.90
7654;DHT22;3869;48.406;10.774;2022-09-09T16:11:32;18.40;99.90
7654;DHT22;3869;48.406;10.774;2022-09-09T16:14:01;18.40;99.90
7654;DHT22;3869;48.406;10.774;2022-09-09T16:16:31;18.40;99.90
7654;DHT22;3869;48.406;10.774;2022-09-09T16:19:00;18.40;99.90
7654;DHT22;3869;48.406;10.774;2022-09-09T16:21:30;18.40;99.90
7654;DHT22;3869;48.406;10.774;2022-09-09T16:24:01;18.40;99.90